Time;durP1;ratioP1;P1;durP2;ratioP2;P2;SDS_P1;SDS_P2;PMS_P1;PMS_P2;Temp;Humidity;BMP_temperature;BMP_pressure;BME280_temperature;BME280_humidity;BME280_pressure;Samples;Min_cycle;Max_cycle;Signal;HPM_P1;HPM_P2
2022/10/01 00:02:12;;;;;;;14.52;5.45;;;;;;;16.21;85.74;100628.13;5009938;28;20532;-84
2022/10/01 00:04:57;;;;;;;5.07;4.10;;;;;;;16.16;85.69;100629.22;5007450;28;20418;-85
2022/10/01 00:07:43;;;;;;;8.50;5.65;;;;;;;16.02;86.05;100622.56;5000009;28;20064;-85
2022/10/01 00:10:29;;;;;;;7.22;4.47;;;;;;;16.13;85.83;100629.94;5011550;28;20048;-86
2022/10/01 00:13:14;;;;;;;5.35;3.42;;;;;;;16.09;85.40;100626.31;5009966;28;20048;-85
2022/10/01 00:15:59;;;;;;;5.00;3.45;;;;;;;15.97;85.51;100623.63;5011356;28;20056;-86
2022/10/01 00:18:45;;;;;;;4.60;2.72;;;;;;;15.90;86.14;100623.44;5010037;28;20065;-86
2022/10/01 00:21:31;;;;;;;6.40;2.75;;;;;;;15.90;85.61;100626.19;5010991;28;20520;-86
2022/10/01 00:24:16;;;;;;;3.50;2.97;;;;;;;15.76;86.27;100625.81;5003144;28;20053;-87
2022/10/01 00:27:01;;;;;;;6.45;2.85;;;;;;;15.79;86.35;100627.88;4995384;28;20049;-87
2022/10/01 00:29:45;;;;;;;3.65;2.83;;;;;;;15.92;85.76;100615.69;5007426;28;20688;-84
2022/10/01 00:32:31;;;;;;;7.82;2.92;;;;;;;15.93;84.95;100627.44;4999868;28;20053;-83
2022/10/01 00:35:15;;;;;;;4.82;2.50;;;;;;;15.78;85.19;100612.56;5000033;28;20049;-83
2022/10/01 00:38:00;;;;;;;2.78;1.52;;;;;;;15.77;85.15;100602.75;4999755;28;20049;-87
2022/10/01 00:40:45;;;;;;;2.20;1.75;;;;;;;15.83;85.49;100615.06;5019885;28;20056;-85
2022/10/01 00:43:36;;;;;;;10.57;2.10;;;;;;;16.04;84.35;100620.28;5019878;28;20073;-85
2022/10/01 00:46:38;;;;;;;3.78;2.17;;;;;;;16.09;83.98;100626.31;5020183;28;20129;-85
2022/10/01 00:49:28;;;;;;;3.90;2.35;;;;;;;16.16;83.23;100618.22;5015557;28;20069;-86
2022/10/01 00:52:21;;;;;;;6.32;1.80;;;;;;;16.27;82.04;100619.28;5020045;28;20045;-83
2022/10/01 00:55:14;;;;;;;5.47;2.10;;;;;;;15.96;83.36;100622.03;5007418;28;20052;-85
2022/10/01 00:57:59;;;;;;;2.83;2.33;;;;;;;15.60;84.99;100633.22;4996465;28;20402;-87
2022/10/01 01:00:45;;;;;;;2.47;1.92;;;;;;;15.47;84.99;100640.69;4999904;28;20057;-86
2022/10/01 01:03:30;;;;;;;6.60;2.38;;;;;;;15.25;86.25;100636.56;4993257;28;20050;-85
2022/10/01 01:06:15;;;;;;;;;;;;;;;15.29;86.33;100639.38;5000107;28;20053;-83
2022/10/01 01:09:02;;;;;;;3.90;2.00;;;;;;;15.19;86.25;100639.88;4996571;28;20392;-85
2022/10/01 01:12:01;;;;;;;4.35;2.47;;;;;;;15.21;86.44;100646.63;5013139;28;20048;-82
2022/10/01 01:15:03;;;;;;;4.32;1.70;;;;;;;15.25;86.00;100650.25;5012993;28;20113;-84
2022/10/01 01:17:54;;;;;;;6.68;2.38;;;;;;;15.32;86.17;100655.16;5015605;28;20053;-84
2022/10/01 01:20:53;;;;;;;20.50;3.33;;;;;;;15.37;85.42;100650.22;5018395;28;20057;-83
2022/10/01 01:23:46;;;;;;;3.42;2.08;;;;;;;15.39;84.13;100650.66;5018330;28;20061;-82
2022/10/01 01:26:42;;;;;;;4.57;2.15;;;;;;;15.16;84.96;100652.34;5018510;28;20049;-84
2022/10/01 01:29:52;;;;;;;3.72;2.20;;;;;;;15.24;85.14;100661.56;5012254;28;20521;-84
2022/10/01 01:33:11;;;;;;;3.15;2.33;;;;;;;15.35;84.80;100666.19;4998644;28;20045;-82
2022/10/01 01:36:12;;;;;;;2.75;2.05;;;;;;;15.66;82.09;100662.78;4998876;28;20061;-85
2022/10/01 01:39:03;;;;;;;3.22;2.00;;;;;;;15.78;81.09;100661.94;4993779;28;20053;-86
2022/10/01 01:41:51;;;;;;;4.95;1.90;;;;;;;15.68;80.93;100657.75;4998737;28;20460;-86
2022/10/01 01:44:40;;;;;;;3.22;1.90;;;;;;;15.66;80.40;100646.34;5004416;28;20054;-88
2022/10/01 01:47:29;;;;;;;3.42;2.33;;;;;;;15.67;80.13;100649.88;5002962;28;20445;-87
2022/10/01 01:50:15;;;;;;;3.67;2.22;;;;;;;15.63;80.13;100651.72;5016639;28;20053;-89
2022/10/01 01:53:01;;;;;;;5.32;2.55;;;;;;;15.66;79.31;100659.25;5023034;28;20068;-83
2022/10/01 01:55:48;;;;;;;3.13;2.40;;;;;;;15.60;79.45;100652.41;5022118;28;20090;-85
2022/10/01 01:58:34;;;;;;;5.18;3.22;;;;;;;15.70;79.53;100651.91;5017037;28;20189;-83
2022/10/01 02:01:42;;;;;;;4.60;3.38;;;;;;;15.67;79.64;100649.88;5021813;28;20049;-84
2022/10/01 02:04:32;;;;;;;4.97;2.88;;;;;;;15.55;78.80;100647.19;5022164;28;20052;-87
2022/10/01 02:07:17;;;;;;;5.88;3.97;;;;;;;15.51;79.47;100655.31;5020420;28;20037;-86
2022/10/01 02:10:28;;;;;;;3.20;2.42;;;;;;;15.52;79.09;100642.41;5022084;28;20417;-86
2022/10/01 02:13:41;;;;;;;5.88;3.22;;;;;;;15.57;78.46;100642.16;5021896;28;20053;-84
2022/10/01 02:16:44;;;;;;;6.43;3.38;;;;;;;15.64;78.21;100650.59;5021613;28;20085;-85
2022/10/01 02:19:44;;;;;;;9.63;4.25;;;;;;;15.42;78.65;100649.16;5021968;28;20045;-83
2022/10/01 02:22:36;;;;;;;5.43;4.07;;;;;;;15.54;78.44;100648.34;5021096;28;20052;-83
2022/10/01 02:25:25;;;;;;;6.03;3.92;;;;;;;15.46;78.36;100647.31;5018517;28;20045;-86
2022/10/01 02:28:14;;;;;;;16.65;4.43;;;;;;;15.32;78.74;100639.50;5017723;28;20053;-86
2022/10/01 02:31:01;;;;;;;8.82;4.05;;;;;;;15.28;78.55;100635.06;5030331;28;20069;-88
2022/10/01 02:33:48;;;;;;;8.07;4.07;;;;;;;15.25;78.79;100644.78;5020975;28;20068;-86
2022/10/01 02:36:34;;;;;;;4.90;4.22;;;;;;;15.10;79.63;100642.78;5018956;28;20041;-87
2022/10/01 02:39:22;;;;;;;8.52;5.25;;;;;;;15.07;80.05;100648.94;5018314;28;20126;-84
2022/10/01 02:42:12;;;;;;;9.60;4.82;;;;;;;15.17;80.11;100643.00;5004181;28;20540;-86
2022/10/01 02:45:01;;;;;;;13.63;4.68;;;;;;;15.01;79.92;100633.09;5005089;28;20049;-86
2022/10/01 02:47:52;;;;;;;8.13;6.00;;;;;;;15.10;79.13;100634.56;5002168;28;20042;-85
2022/10/01 02:50:45;;;;;;;10.02;5.05;;;;;;;15.07;79.56;100638.00;5004828;28;20057;-87
2022/10/01 02:53:41;;;;;;;6.68;5.05;;;;;;;15.07;79.54;100626.25;5004295;28;20045;-84
2022/10/01 02:59:30;;;;;;;13.52;4.43;;;;;;;15.05;79.51;100634.00;5020106;28;20045;-86
2022/10/01 03:02:15;;;;;;;6.57;4.38;;;;;;;15.09;78.40;100630.22;5022918;28;20408;-86
2022/10/01 03:05:00;;;;;;;8.40;5.00;;;;;;;15.13;78.25;100642.09;5017487;28;20053;-86
2022/10/01 03:07:46;;;;;;;10.13;5.18;;;;;;;15.01;78.52;100644.84;5018520;28;20049;-86
2022/10/01 03:10:31;;;;;;;8.40;5.05;;;;;;;14.91;79.48;100645.34;5022392;28;20412;-86
2022/10/01 03:13:17;;;;;;;;;;;;;;;14.80;81.10;100658.69;5023443;28;20540;-84
2022/10/01 03:16:02;;;;;;;13.98;6.43;;;;;;;14.73;81.64;100661.22;5022696;28;19917;-86
2022/10/01 03:18:46;;;;;;;10.40;6.25;;;;;;;14.70;81.89;100661.91;5018075;28;20038;-86
2022/10/01 03:21:31;;;;;;;9.93;5.72;;;;;;;14.71;82.10;100660.78;5022899;28;20042;-88
2022/10/01 03:24:15;;;;;;;11.43;6.00;;;;;;;14.89;81.01;100655.81;5015137;28;20053;-84
2022/10/01 03:27:00;;;;;;;13.25;6.13;;;;;;;14.97;79.95;100660.38;5019581;28;20044;-83
2022/10/01 03:29:45;;;;;;;11.10;5.18;;;;;;;14.98;79.43;100670.22;5018637;28;20045;-86
2022/10/01 03:32:31;;;;;;;8.52;5.50;;;;;;;15.00;78.76;100656.94;5016446;28;20049;-88
2022/10/01 03:35:16;;;;;;;10.55;5.68;;;;;;;14.70;80.27;100658.38;4997270;28;20053;-86
2022/10/01 03:38:01;;;;;;;12.40;6.07;;;;;;;14.92;79.69;100668.84;4999143;28;20043;-82
2022/10/01 03:40:46;;;;;;;11.75;5.90;;;;;;;14.99;78.82;100663.56;5018572;28;20057;-86
2022/10/01 03:43:31;;;;;;;9.85;4.57;;;;;;;14.92;78.25;100657.88;5016138;28;20509;-83
2022/10/01 03:46:16;;;;;;;13.20;5.85;;;;;;;14.53;80.65;100662.94;5017644;28;20049;-87
2022/10/01 03:49:01;;;;;;;8.05;6.20;;;;;;;14.52;81.34;100666.84;5012486;28;20049;-84
2022/10/01 03:51:46;;;;;;;;;;;;;;;14.60;81.39;100672.53;5003191;28;20073;-82
2022/10/01 03:54:31;;;;;;;15.05;6.28;;;;;;;14.48;81.24;100665.91;5017636;28;19913;-84
2022/10/01 03:57:15;;;;;;;;;;;;;;;14.51;81.73;100673.44;5015840;28;20042;-82
2022/10/01 04:00:00;;;;;;;14.88;6.07;;;;;;;14.41;82.20;100671.16;5013091;28;19913;-84
2022/10/01 04:02:45;;;;;;;5.60;4.05;;;;;;;14.25;82.91;100672.16;5011226;28;20058;-85
2022/10/01 04:05:30;;;;;;;8.52;6.22;;;;;;;14.08;83.63;100667.69;4998596;28;20061;-84
2022/10/01 04:08:15;;;;;;;10.18;6.38;;;;;;;14.13;83.82;100659.25;4994384;28;20065;-84
2022/10/01 04:10:59;;;;;;;;;;;;;;;14.17;83.45;100668.38;5001227;28;20049;-84
2022/10/01 04:13:44;;;;;;;14.73;6.18;;;;;;;14.04;83.48;100664.03;5017796;28;19913;-85
2022/10/01 04:16:29;;;;;;;7.75;4.40;;;;;;;14.20;83.34;100664.97;5016492;28;20049;-87
2022/10/01 04:19:13;;;;;;;6.38;4.60;;;;;;;14.52;79.36;100663.31;5009696;28;20057;-83
2022/10/01 04:21:58;;;;;;;35.13;16.60;;;;;;;14.57;77.17;100671.28;5021736;28;20429;-83
2022/10/01 04:24:43;;;;;;;;;;;;;;;14.63;75.97;100682.81;5009223;28;20038;-86
2022/10/01 04:27:27;;;;;;;16.27;9.45;;;;;;;14.54;76.77;100666.47;5011371;28;20384;-88
2022/10/01 04:30:12;;;;;;;;;;;;;;;14.57;77.09;100674.03;5032578;23;20053;-84
2022/10/01 04:32:57;;;;;;;11.25;7.47;;;;;;;14.50;77.19;100674.59;5024791;28;20296;-84
2022/10/01 04:35:42;;;;;;;13.18;7.97;;;;;;;14.47;76.96;100667.06;5020677;28;20564;-84
2022/10/01 04:38:27;;;;;;;;;;;;;;;14.47;77.31;100669.00;5019083;28;20042;-84
2022/10/01 04:41:13;;;;;;;8.85;5.43;;;;;;;14.45;77.54;100672.06;5015937;28;19913;-84
2022/10/01 04:43:58;;;;;;;9.30;5.45;;;;;;;14.28;77.60;100666.78;5004660;28;20065;-86
2022/10/01 04:46:44;;;;;;;;;;;;;;;14.26;77.88;100662.81;5004695;28;20046;-86
2022/10/01 04:49:30;;;;;;;11.38;5.88;;;;;;;14.24;78.00;100660.41;5008407;28;19940;-85
2022/10/01 04:52:14;;;;;;;11.23;6.70;;;;;;;14.25;77.67;100662.00;5010632;28;20118;-85
2022/10/01 04:55:00;;;;;;;;;;;;;;;14.20;78.34;100654.03;5019820;28;20053;-85
2022/10/01 04:57:44;;;;;;;11.03;7.27;;;;;;;14.23;78.50;100661.53;5010558;28;19918;-86
2022/10/01 05:00:29;;;;;;;13.10;7.07;;;;;;;14.08;79.22;100651.25;5017599;28;20515;-84
2022/10/01 05:03:14;;;;;;;;;;;;;;;14.02;81.27;100658.09;5014761;28;20038;-85
2022/10/01 05:05:59;;;;;;;8.10;4.43;;;;;;;13.76;82.79;100652.94;5015819;28;19913;-83
2022/10/01 05:08:44;;;;;;;12.23;6.60;;;;;;;13.73;83.41;100661.00;5018443;28;20319;-84
2022/10/01 05:11:30;;;;;;;7.13;4.65;;;;;;;13.68;83.49;100665.53;5017868;28;20046;-84
2022/10/01 05:14:14;;;;;;;9.57;5.45;;;;;;;13.66;83.70;100662.34;5004706;28;20065;-84
2022/10/01 05:16:59;;;;;;;;;;;;;;;13.79;82.38;100665.91;5021420;28;20417;-84
2022/10/01 05:19:45;;;;;;;11.67;4.97;;;;;;;13.77;82.05;100657.25;5008476;28;19921;-84
2022/10/01 05:22:30;;;;;;;9.13;5.50;;;;;;;13.54;82.12;100664.25;5002155;28;20288;-83
2022/10/01 05:25:16;;;;;;;10.98;6.22;;;;;;;13.61;82.22;100661.78;5017898;28;20060;-84
2022/10/01 05:28:05;;;;;;;9.02;6.22;;;;;;;13.52;82.71;100661.84;5021225;28;20401;-84
2022/10/01 05:30:49;;;;;;;12.50;6.22;;;;;;;13.44;82.35;100668.19;5020471;28;20057;-84
2022/10/01 05:33:35;;;;;;;11.65;5.90;;;;;;;13.59;82.68;100666.75;5016177;28;20045;-84
2022/10/01 05:36:20;;;;;;;10.45;6.53;;;;;;;13.45;84.05;100682.66;5014865;28;20049;-83
2022/10/01 05:39:04;;;;;;;7.78;5.22;;;;;;;13.58;83.45;100687.81;5008240;28;20050;-84
2022/10/01 05:41:50;;;;;;;18.92;9.93;;;;;;;13.55;83.14;100687.69;5008571;28;20057;-83
2022/10/01 05:44:36;;;;;;;20.85;13.35;;;;;;;13.65;81.75;100682.63;5020670;28;20041;-82
2022/10/01 05:47:22;;;;;;;13.73;9.32;;;;;;;13.58;82.36;100695.22;5019265;28;20507;-84
2022/10/01 05:50:08;;;;;;;11.30;7.25;;;;;;;13.50;83.97;100694.19;5019390;28;20037;-84
2022/10/01 05:52:53;;;;;;;10.80;7.18;;;;;;;13.60;83.92;100696.50;5021986;28;20064;-85
2022/10/01 05:55:38;;;;;;;12.18;8.63;;;;;;;13.62;83.95;100704.34;5021309;28;20045;-86
2022/10/01 05:58:23;;;;;;;11.50;5.45;;;;;;;13.80;83.89;100715.91;5019310;28;20041;-85
2022/10/01 06:01:08;;;;;;;;;;;;;;;13.94;83.37;100727.34;5023763;28;20045;-85
2022/10/01 06:03:53;;;;;;;11.85;6.90;;;;;;;13.94;83.05;100725.41;5017423;28;19914;-84
2022/10/01 06:06:37;;;;;;;;;;;;;;;14.06;82.72;100741.06;5020219;28;20504;-84
2022/10/01 06:09:22;;;;;;;12.93;8.15;;;;;;;13.99;83.17;100740.81;5017389;28;19914;-84
2022/10/01 06:12:08;;;;;;;10.85;7.00;;;;;;;14.20;82.42;100741.53;5016341;28;20060;-83
2022/10/01 06:14:53;;;;;;;16.33;7.78;;;;;;;14.42;81.43;100749.38;5018470;28;20056;-83
2022/10/01 06:17:43;;;;;;;;;;;;;;;14.52;81.60;100759.88;5016326;28;20045;-83
2022/10/01 06:20:28;;;;;;;9.73;5.30;;;;;;;14.54;81.75;100752.13;5020935;28;19913;-83
2022/10/01 06:23:13;;;;;;;11.75;6.45;;;;;;;14.56;81.38;100749.03;5006451;28;20455;-85
2022/10/01 06:25:59;;;;;;;;;;;;;;;14.66;81.35;100764.22;5012915;28;20046;-85
2022/10/01 06:28:44;;;;;;;11.32;5.40;;;;;;;14.80;80.95;100764.66;5015669;28;19913;-87
2022/10/01 06:31:29;;;;;;;13.05;7.07;;;;;;;14.67;81.97;100755.66;5022855;28;20048;-84
2022/10/01 06:34:14;;;;;;;;;;;;;;;14.85;80.77;100767.19;5021705;28;20532;-85
2022/10/01 06:36:58;;;;;;;12.98;8.63;;;;;;;14.76;81.14;100769.25;5018967;28;19917;-84
2022/10/01 06:39:43;;;;;;;12.93;8.52;;;;;;;14.76;81.15;100770.03;5015476;28;20041;-83
2022/10/01 06:42:28;;;;;;;8.80;6.60;;;;;;;14.61;81.98;100769.91;5018310;28;20038;-82
2022/10/01 06:45:13;;;;;;;13.40;7.75;;;;;;;14.67;82.11;100776.75;5014940;28;20049;-82
2022/10/01 06:48:02;;;;;;;13.05;8.15;;;;;;;14.86;81.78;100779.72;5013478;28;20041;-85
2022/10/01 06:50:49;;;;;;;12.25;7.32;;;;;;;14.90;81.77;100773.22;5018918;28;20034;-85
2022/10/01 06:53:33;;;;;;;12.70;8.63;;;;;;;14.64;81.51;100775.50;5013753;28;20141;-83
2022/10/01 06:56:18;;;;;;;13.88;7.32;;;;;;;14.52;83.44;100779.03;5005296;28;20038;-85
2022/10/01 06:59:03;;;;;;;13.75;8.52;;;;;;;14.55;83.52;100772.06;5011991;28;20054;-84
2022/10/01 07:01:48;;;;;;;;;;;;;;;14.40;84.05;100778.19;5020193;28;20045;-81
2022/10/01 07:04:33;;;;;;;15.38;8.82;;;;;;;14.54;83.99;100792.34;5011722;28;19913;-84
2022/10/01 07:07:18;;;;;;;;;;;;;;;14.76;83.83;100788.41;5019620;28;20034;-84
2022/10/01 07:10:05;;;;;;;12.40;8.43;;;;;;;14.62;84.00;100796.16;5017232;28;19914;-85
2022/10/01 07:12:50;;;;;;;13.18;8.20;;;;;;;14.70;83.58;100796.03;5017531;28;20042;-86
2022/10/01 07:15:35;;;;;;;13.00;8.07;;;;;;;14.75;83.97;100795.81;5001828;28;20406;-84
2022/10/01 07:18:19;;;;;;;9.82;5.85;;;;;;;14.86;83.76;100794.22;5013656;28;20045;-85
2022/10/01 07:21:04;;;;;;;18.10;7.88;;;;;;;14.77;83.85;100799.03;5014766;28;20045;-85
2022/10/01 07:23:49;;;;;;;13.93;7.15;;;;;;;14.70;83.64;100792.50;5013156;28;20042;-84
2022/10/01 07:26:34;;;;;;;;;;;;;;;14.69;83.82;100779.94;5018615;28;20046;-83
2022/10/01 07:29:18;;;;;;;16.25;7.72;;;;;;;14.72;83.62;100774.59;5014680;28;19913;-83
2022/10/01 07:32:07;;;;;;;;;;;;;;;14.92;84.02;100790.13;5014276;28;20048;-84
2022/10/01 07:34:51;;;;;;;9.77;6.50;;;;;;;16.44;77.29;100771.03;5010626;28;19917;-79
2022/10/01 07:37:36;;;;;;;8.40;6.00;;;;;;;16.94;73.75;100782.13;5012551;28;20053;-78
2022/10/01 07:40:21;;;;;;;8.18;5.45;;;;;;;17.33;71.93;100799.53;5012040;28;20413;-79
2022/10/01 07:43:05;;;;;;;7.63;5.15;;;;;;;17.68;69.97;100796.78;5010594;28;20053;-78
2022/10/01 07:45:53;;;;;;;;;;;;;;;18.10;68.17;100802.34;5011140;28;20160;-79
2022/10/01 07:48:38;;;;;;;20.73;8.38;;;;;;;18.51;66.65;100795.25;5015027;28;19917;-79
2022/10/01 07:51:27;;;;;;;12.98;8.82;;;;;;;18.70;66.60;100800.72;5004450;28;20037;-79
2022/10/01 07:54:12;;;;;;;15.27;9.13;;;;;;;18.67;66.50;100809.72;5009713;28;20046;-79
2022/10/01 07:56:58;;;;;;;12.80;9.05;;;;;;;18.86;65.54;100810.81;5009924;28;20045;-79
2022/10/01 07:59:43;;;;;;;15.13;8.57;;;;;;;19.76;62.34;100815.31;5012057;28;20038;-78
2022/10/01 08:02:27;;;;;;;112.25;12.27;;;;;;;19.33;64.91;100802.91;5013497;28;20042;-83
2022/10/01 08:05:19;;;;;;;15.73;10.73;;;;;;;19.15;63.83;100808.13;5012596;28;20422;-78
2022/10/01 08:08:06;;;;;;;15.57;11.38;;;;;;;19.92;61.23;100837.22;5011525;28;20042;-79
2022/10/01 08:10:51;;;;;;;16.58;10.15;;;;;;;20.42;59.70;100825.59;5013507;28;20049;-78
2022/10/01 08:13:36;;;;;;;16.83;8.15;;;;;;;20.60;59.32;100836.03;5013388;28;20038;-78
2022/10/01 08:16:21;;;;;;;16.30;9.35;;;;;;;20.52;58.92;100845.44;5002125;28;20042;-78
2022/10/01 08:19:08;;;;;;;15.65;10.35;;;;;;;19.77;60.45;100844.53;4996197;28;20045;-78
2022/10/01 08:21:53;;;;;;;18.90;12.45;;;;;;;20.32;59.20;100842.84;5005051;28;20049;-78
2022/10/01 08:24:38;;;;;;;21.15;13.00;;;;;;;20.14;59.37;100836.31;5009613;28;20038;-78
2022/10/01 08:27:25;;;;;;;20.23;12.20;;;;;;;20.29;59.48;100835.31;5000702;28;20034;-79
2022/10/01 08:30:10;;;;;;;20.50;12.93;;;;;;;20.39;59.10;100828.34;5007853;28;20050;-78
2022/10/01 08:32:57;;;;;;;24.08;15.85;;;;;;;20.90;57.29;100831.19;5011558;28;20420;-77
2022/10/01 08:35:42;;;;;;;21.88;14.18;;;;;;;20.87;57.58;100834.72;4999994;28;20034;-77
2022/10/01 08:38:27;;;;;;;19.33;13.48;;;;;;;20.88;57.58;100831.56;5008338;28;20049;-77
2022/10/01 08:41:22;;;;;;;20.67;13.35;;;;;;;21.11;56.99;100839.66;4999605;28;20402;-78
2022/10/01 08:44:19;;;;;;;21.58;12.93;;;;;;;20.64;58.02;100832.13;5008382;28;20042;-78
2022/10/01 08:47:23;;;;;;;19.83;13.25;;;;;;;21.13;57.02;100839.28;5004340;28;20761;-78
2022/10/01 08:50:21;;;;;;;15.68;11.68;;;;;;;20.82;57.45;100843.38;5008167;28;20050;-78
2022/10/01 08:53:14;;;;;;;20.02;13.60;;;;;;;20.54;59.21;100845.84;5004968;28;20042;-78
2022/10/01 08:56:01;;;;;;;23.67;13.45;;;;;;;20.91;57.20;100855.69;5006607;28;20046;-78
2022/10/01 08:58:52;;;;;;;20.23;11.23;;;;;;;20.30;58.85;100839.66;5005733;28;20041;-78
2022/10/01 09:01:36;;;;;;;16.27;10.77;;;;;;;20.69;57.73;100839.28;5014196;28;20054;-79
2022/10/01 09:04:22;;;;;;;21.13;11.98;;;;;;;20.58;57.76;100839.19;5011415;28;20500;-78
2022/10/01 09:07:19;;;;;;;22.30;12.60;;;;;;;20.87;57.00;100848.56;5012041;28;20485;-78
2022/10/01 09:10:15;;;;;;;19.73;13.43;;;;;;;21.31;55.87;100843.78;5013369;28;20050;-78
2022/10/01 09:13:25;;;;;;;20.70;13.20;;;;;;;21.24;56.24;100852.03;5004842;28;20046;-78
2022/10/01 09:16:18;;;;;;;18.85;13.00;;;;;;;21.22;56.27;100850.84;5019144;28;20041;-78
2022/10/01 09:19:37;;;;;;;22.60;13.55;;;;;;;21.85;54.48;100841.31;5003067;28;20046;-78
2022/10/01 09:22:43;;;;;;;27.83;14.45;;;;;;;21.16;56.56;100847.63;5008790;28;20041;-78
2022/10/01 09:25:28;;;;;;;22.38;14.40;;;;;;;21.73;55.39;100856.31;5004767;28;20409;-78
2022/10/01 09:28:22;;;;;;;20.83;13.43;;;;;;;21.92;54.11;100842.16;5004189;28;20034;-78
2022/10/01 09:31:15;;;;;;;28.75;17.00;;;;;;;21.26;55.95;100846.91;5002535;28;20046;-78
2022/10/01 09:34:11;;;;;;;25.15;15.77;;;;;;;21.33;55.18;100826.81;5005299;28;20512;-78
2022/10/01 09:37:22;;;;;;;25.17;15.10;;;;;;;21.16;55.82;100842.09;5007796;28;20046;-78
2022/10/01 09:40:24;;;;;;;23.30;14.18;;;;;;;21.12;55.75;100832.16;4999178;28;20421;-78
2022/10/01 09:43:10;;;;;;;23.70;14.25;;;;;;;21.46;54.06;100832.81;5009174;28;20038;-78
2022/10/01 09:45:56;;;;;;;21.90;14.90;;;;;;;21.55;54.06;100830.47;5007239;28;20042;-78
2022/10/01 09:48:51;;;;;;;20.70;13.23;;;;;;;22.16;52.80;100835.16;5003804;28;20050;-78
2022/10/01 09:51:43;;;;;;;22.95;13.40;;;;;;;22.34;51.90;100829.66;5008231;28;20050;-78
2022/10/01 09:54:41;;;;;;;24.98;14.95;;;;;;;22.57;51.70;100825.34;5003940;28;20042;-78
2022/10/01 09:57:43;;;;;;;22.92;14.50;;;;;;;22.19;52.87;100828.84;5008233;28;20038;-78
2022/10/01 10:00:30;;;;;;;26.02;12.38;;;;;;;22.07;52.53;100818.91;5010419;28;20034;-77
2022/10/01 10:03:29;;;;;;;21.08;13.35;;;;;;;22.96;50.66;100813.50;5012694;28;20049;-78
2022/10/01 10:06:13;;;;;;;25.02;14.18;;;;;;;23.15;49.65;100812.31;5014903;28;20050;-78
2022/10/01 10:09:00;;;;;;;20.38;12.95;;;;;;;23.36;49.79;100817.84;5014424;28;20042;-77
2022/10/01 10:11:46;;;;;;;18.48;12.45;;;;;;;22.35;52.26;100809.84;5014016;28;20046;-77
2022/10/01 10:14:34;;;;;;;17.38;11.70;;;;;;;22.53;51.70;100807.94;5006134;28;20038;-77
2022/10/01 10:17:20;;;;;;;15.57;10.55;;;;;;;21.56;52.51;100799.66;5014344;28;20045;-77
2022/10/01 10:20:24;;;;;;;17.30;10.90;;;;;;;22.92;49.99;100780.22;5013640;28;20049;-77
2022/10/01 10:23:25;;;;;;;16.40;10.10;;;;;;;23.39;48.75;100789.28;5011702;28;20038;-77
2022/10/01 10:26:19;;;;;;;15.98;10.18;;;;;;;23.63;47.99;100791.22;5013234;28;20037;-76
2022/10/01 10:29:08;;;;;;;16.43;10.83;;;;;;;22.61;50.78;100781.00;5014072;28;20038;-77
2022/10/01 10:31:54;;;;;;;22.17;11.00;;;;;;;22.55;51.23;100779.81;5014369;28;20049;-77
2022/10/01 10:34:44;;;;;;;16.83;10.82;;;;;;;22.63;50.08;100781.41;5014400;28;20401;-77
2022/10/01 10:37:35;;;;;;;16.23;10.20;;;;;;;22.67;49.52;100779.41;5016818;28;20037;-77
2022/10/01 10:40:23;;;;;;;18.27;10.77;;;;;;;23.12;49.25;100780.59;4998814;28;20513;-77
2022/10/01 10:43:24;;;;;;;16.85;9.90;;;;;;;23.12;48.94;100774.25;5017377;28;20248;-77
2022/10/01 10:46:09;;;;;;;16.85;10.63;;;;;;;23.27;48.65;100784.16;5010534;28;20041;-77
2022/10/01 10:49:04;;;;;;;17.33;11.60;;;;;;;22.77;50.15;100780.63;5009441;28;20034;-77
2022/10/01 10:51:53;;;;;;;17.05;10.73;;;;;;;23.17;49.80;100773.84;5011307;28;20042;-77
2022/10/01 10:54:47;;;;;;;16.38;10.30;;;;;;;23.10;49.60;100769.13;5011753;28;20038;-77
2022/10/01 10:57:35;;;;;;;14.05;10.20;;;;;;;22.44;51.38;100771.50;5010547;28;20042;-78
2022/10/01 11:00:24;;;;;;;15.98;10.35;;;;;;;23.12;49.96;100760.38;5001661;28;20041;-78
2022/10/01 11:03:16;;;;;;;17.90;10.18;;;;;;;24.79;45.96;100771.50;5007935;28;20417;-78
2022/10/01 11:06:10;;;;;;;16.88;9.40;;;;;;;27.38;39.39;100783.50;5032469;23;20046;-77
2022/10/01 11:09:09;;;;;;;17.27;9.98;;;;;;;30.56;33.43;100785.84;5014967;28;20042;-79
2022/10/01 11:12:21;;;;;;;20.45;11.27;;;;;;;31.01;31.71;100776.31;5016001;28;20037;-76
2022/10/01 11:15:15;;;;;;;16.33;11.02;;;;;;;29.33;34.78;100770.66;5007334;28;20045;-81
2022/10/01 11:18:15;;;;;;;12.63;9.23;;;;;;;29.65;34.25;100775.38;4984238;28;20046;-80
2022/10/01 11:20:59;;;;;;;15.25;9.45;;;;;;;31.90;30.87;100765.44;4995605;28;20034;-79
2022/10/01 11:24:00;;;;;;;14.38;8.48;;;;;;;34.61;26.47;100779.31;4998714;28;20448;-80
2022/10/01 11:26:52;;;;;;;11.95;8.68;;;;;;;32.20;29.28;100766.72;4993211;28;20054;-81
2022/10/01 11:29:49;;;;;;;10.60;8.05;;;;;;;32.54;28.91;100785.47;4993972;28;20034;-79
2022/10/01 11:32:36;;;;;;;15.13;8.68;;;;;;;29.56;32.80;100789.25;4986725;28;20053;-80
2022/10/01 11:35:27;;;;;;;16.17;8.63;;;;;;;28.66;35.24;100800.34;4990949;28;20034;-81
2022/10/01 11:38:30;;;;;;;10.93;7.95;;;;;;;30.73;31.00;100810.97;4992374;28;20426;-79
2022/10/01 11:41:24;;;;;;;18.88;10.15;;;;;;;31.63;29.84;100796.22;4996147;28;20053;-82
2022/10/01 11:44:24;;;;;;;11.13;8.27;;;;;;;33.26;27.39;100801.75;4999301;28;20046;-80
2022/10/01 11:47:14;;;;;;;10.90;8.07;;;;;;;33.51;27.35;100789.38;4989192;28;20058;-80
2022/10/01 11:50:03;;;;;;;13.20;9.20;;;;;;;32.61;27.76;100785.94;4993157;28;20406;-79
2022/10/01 11:53:13;;;;;;;12.13;10.15;;;;;;;30.92;30.40;100779.03;4994142;28;20042;-80
2022/10/01 11:59:36;;;;;;;11.82;8.65;;;;;;;26.38;38.86;100764.88;5007418;28;20061;-79
2022/10/01 12:02:30;;;;;;;12.18;8.57;;;;;;;26.16;39.66;100760.03;4993866;28;20049;-78
2022/10/01 12:05:19;;;;;;;10.38;7.68;;;;;;;26.02;40.48;100757.44;4992632;28;20046;-78
2022/10/01 12:08:19;;;;;;;9.90;8.45;;;;;;;26.23;40.02;100743.22;4991847;28;20053;-80
2022/10/01 12:11:16;;;;;;;9.65;6.85;;;;;;;25.21;41.27;100743.28;4991502;28;20049;-79
2022/10/01 12:14:08;;;;;;;9.98;7.75;;;;;;;25.94;40.67;100737.25;4992159;28;20068;-80
2022/10/01 12:17:17;;;;;;;9.15;7.65;;;;;;;27.69;36.87;100745.00;4991461;28;20046;-80
2022/10/01 12:20:12;;;;;;;8.60;6.82;;;;;;;29.83;32.70;100747.59;4993163;28;20058;-80
2022/10/01 12:22:59;;;;;;;18.20;9.27;;;;;;;28.86;34.24;100745.88;4987835;28;20045;-78
2022/10/01 12:25:56;;;;;;;10.07;7.13;;;;;;;27.36;37.22;100732.09;4991635;28;20045;-80
2022/10/01 12:28:59;;;;;;;13.50;6.90;;;;;;;27.88;35.60;100729.44;4992900;28;20046;-80
2022/10/01 12:31:46;;;;;;;7.70;5.43;;;;;;;29.96;32.77;100720.38;5013292;28;20057;-80
2022/10/01 12:34:44;;;;;;;7.95;5.50;;;;;;;29.13;33.76;100713.97;4996414;28;20049;-79
2022/10/01 12:37:48;;;;;;;7.15;5.22;;;;;;;27.56;36.31;100704.97;5009756;28;20051;-79
2022/10/01 12:40:49;;;;;;;7.75;5.70;;;;;;;29.04;33.78;100711.03;4997834;28;20049;-79
2022/10/01 12:44:01;;;;;;;7.80;4.53;;;;;;;31.51;29.01;100723.94;4992758;28;20520;-79
2022/10/01 12:46:55;;;;;;;9.20;5.00;;;;;;;29.98;30.87;100722.72;4992679;28;20149;-85
2022/10/01 12:49:50;;;;;;;7.53;6.28;;;;;;;30.12;30.53;100714.66;4992001;28;20041;-85
2022/10/01 12:52:58;;;;;;;13.57;6.50;;;;;;;30.48;30.15;100705.88;4992888;28;20045;-84
2022/10/01 12:55:53;;;;;;;7.18;5.38;;;;;;;31.53;28.83;100705.38;5006675;28;20041;-84
2022/10/01 12:58:57;;;;;;;9.63;5.70;;;;;;;32.39;27.81;100711.25;5010087;28;20053;-84
2022/10/01 13:01:58;;;;;;;6.00;4.35;;;;;;;30.44;29.81;100708.00;5006704;28;20114;-83
2022/10/01 13:04:58;;;;;;;8.35;4.72;;;;;;;29.99;29.85;100693.44;4993013;28;20046;-85
2022/10/01 13:08:04;;;;;;;7.38;4.47;;;;;;;31.92;27.84;100689.81;4986428;28;20050;-84
2022/10/01 13:11:20;;;;;;;8.40;3.72;;;;;;;32.58;26.81;100679.06;4987542;28;20046;-85
2022/10/01 13:14:10;;;;;;;8.82;4.32;;;;;;;32.30;28.05;100680.28;4998565;28;20130;-83
2022/10/01 13:16:58;;;;;;;5.65;3.55;;;;;;;31.54;28.08;100683.69;5007734;28;20053;-83